Portada
METAR-TAF:

METAR-TAF

Aeropuertos :

Aeropuerto Internacional de Nador

Nador, Marruecos

latitud: 34-59-20N, longitud: 003-01-42W, altitud: 175 m

Observación

El informe se hizo hace 1 hora y 1 minutos, a las 12:00 UTC
Viento 7 kt del este-noreste, variando entre noreste y este
Temperatura 14°C
Humedad 58%
Presión 1030 hPa
Visibilidad: 8000 m
Escasas nubes a una altura de 1500 ft
Nubes dispersas a una altura de 3400 ft

METAR: GMMW 031200Z 06007KT 040V100 8000 FEW015 SCT034 14/06 Q1030 NOSIG

Hora: 14:01 (13:01 UTC)

Pronóstico

El informe se hizo hace 2 horas y 1 minutos, a las 11:00 UTC
Pronóstico válido del 03 a las 12 UTC al 04 a las 18 UTC
Viento 6 kt del este-noreste
Visibilidad: 8000 m
Escasas nubes a una altura de 1500 ft
Nubes dispersas a una altura de 3400 ft

TAF: GMMW 031100Z 0312/0418 06006KT 8000 FEW015 SCT034

Observaciones y pronósticos meteorológicos de más de 4000 aeropuertos (mensajes METAR y TAF).

Los puntos amarillos y rojos representan las estaciones disponibles.

Ponga el ratón en el punto deseado para ver el nombre de la estación.

Haga clic para ver las observaciones y los pronósticos meteorológicos.

Para cambiar el mapa : haga clic en los botones verdes con una cruz de color negro para hacer un zoom, en el botón verde con un guión para alejar o en las flechas verdes para mapas adyacentes.


METAR-TAF: